createdAt,value
2023-04-25T04:06:05.384Z,48.88
2023-04-25T04:07:11.390Z,47.89
2023-04-25T04:08:17.734Z,46.51
2023-04-25T04:09:22.026Z,45.28
2023-04-25T04:10:30.322Z,44.47
2023-04-25T04:11:39.524Z,44.44
2023-04-25T04:12:42.873Z,43.06
2023-04-25T04:13:46.365Z,41.44
2023-04-25T04:14:48.369Z,39.83
2023-04-25T04:15:50.625Z,40.52
2023-04-25T04:16:53.354Z,39.65
2023-04-25T04:17:55.963Z,39.87
2023-04-25T04:18:58.445Z,38.72
2023-04-25T04:20:00.937Z,37.99
2023-04-25T04:21:06.540Z,38.65
2023-04-25T04:22:12.262Z,37.53
2023-04-25T04:23:16.025Z,37.95
2023-04-25T04:24:25.063Z,37.35
2023-04-25T04:25:42.952Z,35.36
2023-04-25T04:27:07.893Z,35.84
2023-04-25T04:28:20.145Z,36.48
2023-04-25T04:29:36.126Z,35.36
2023-04-25T04:30:48.081Z,34.83
2023-04-25T04:32:02.154Z,33.70
2023-04-25T04:33:05.531Z,33.09
2023-04-25T04:34:14.466Z,33.40
2023-04-25T04:35:17.192Z,33.18
2023-04-25T04:36:24.467Z,32.02
2023-04-25T04:37:32.299Z,31.63
2023-04-25T04:38:39.149Z,32.11
2023-04-25T04:40:09.198Z,31.63
2023-04-25T04:41:34.400Z,31.64
2023-04-25T04:42:57.526Z,32.17
2023-04-25T04:44:23.901Z,32.50
2023-04-25T04:46:07.307Z,32.27
2023-04-25T04:47:18.452Z,31.87
2023-04-25T04:48:54.035Z,31.75
2023-04-25T04:50:11.889Z,31.59
2023-04-25T04:51:32.847Z,31.33
2023-04-25T04:52:53.348Z,32.08
2023-04-25T04:54:14.147Z,31.33
2023-04-25T04:55:28.199Z,31.05
2023-04-25T04:56:45.039Z,30.79
2023-04-25T04:58:30.897Z,30.43
2023-04-25T05:00:11.989Z,30.83
2023-04-25T05:01:53.883Z,30.12
2023-04-25T05:03:34.003Z,29.11
2023-04-25T05:04:57.510Z,29.06
2023-04-25T05:06:19.189Z,28.82
2023-04-25T05:07:42.620Z,27.97
2023-04-25T05:09:39.700Z,28.95
2023-04-25T05:10:59.602Z,29.09
2023-04-25T05:12:25.920Z,28.60
2023-04-25T05:13:54.137Z,28.73
2023-04-25T05:15:15.887Z,28.86
2023-04-25T05:16:34.385Z,27.80
2023-04-25T05:17:56.597Z,29.96
2023-04-25T05:19:24.635Z,28.54
2023-04-25T05:20:48.033Z,27.73
2023-04-25T05:21:53.285Z,27.32
2023-04-25T05:23:19.405Z,27.30
2023-04-25T05:24:53.941Z,27.65
2023-04-25T05:26:25.002Z,28.24
2023-04-25T05:27:37.800Z,27.69
2023-04-25T05:28:53.723Z,27.34
2023-04-25T05:30:14.595Z,25.96
2023-04-25T05:31:42.013Z,25.84
2023-04-25T05:32:47.953Z,26.82
2023-04-25T05:33:50.257Z,27.17
2023-04-25T05:34:53.966Z,26.96
2023-04-25T05:36:01.420Z,27.45
2023-04-25T05:37:03.555Z,28.38
2023-04-25T05:38:06.852Z,28.68
2023-04-25T05:39:27.842Z,29.77
2023-04-25T05:41:01.135Z,31.42
2023-04-25T05:42:19.544Z,31.74
2023-04-25T05:43:33.265Z,33.34
2023-04-25T05:44:56.474Z,35.58
2023-04-25T05:46:07.460Z,35.09
2023-04-25T05:47:21.473Z,32.84
2023-04-25T05:48:59.462Z,30.68
2023-04-25T05:50:25.303Z,30.29
2023-04-25T05:51:34.724Z,29.55
2023-04-25T05:53:06.888Z,27.82
2023-04-25T05:54:15.312Z,27.07
2023-04-25T05:55:17.233Z,27.19
2023-04-25T05:56:20.280Z,27.79
2023-04-25T05:57:25.896Z,27.13
2023-04-25T05:58:30.126Z,27.08
2023-04-25T05:59:33.684Z,27.48
2023-04-25T06:00:35.977Z,27.98
2023-04-25T06:01:37.969Z,27.04
2023-04-25T06:02:39.975Z,26.11
2023-04-25T06:03:54.106Z,24.81
2023-04-25T06:05:04.592Z,24.86
2023-04-25T06:06:06.895Z,25.24
2023-04-25T06:07:09.865Z,26.11
2023-04-25T06:08:12.224Z,25.62
2023-04-25T06:09:14.617Z,24.47
2023-04-25T06:10:19.727Z,24.55
2023-04-25T06:11:21.502Z,25.20
2023-04-25T06:12:23.254Z,24.97
2023-04-25T06:13:26.904Z,25.09
2023-04-25T06:14:44.365Z,24.32
2023-04-25T06:16:06.981Z,23.70
2023-04-25T06:17:10.169Z,24.15
2023-04-25T06:18:32.371Z,23.69
2023-04-25T06:19:37.211Z,23.68
2023-04-25T06:20:58.922Z,23.33
2023-04-25T06:22:11.751Z,23.42
2023-04-25T06:23:21.486Z,23.72
2023-04-25T06:24:48.340Z,23.62
2023-04-25T06:25:51.220Z,23.03
2023-04-25T06:26:53.753Z,22.87
2023-04-25T06:27:55.674Z,22.89
2023-04-25T06:28:57.638Z,22.97
2023-04-25T06:29:59.436Z,22.73
2023-04-25T06:31:02.139Z,22.93
2023-04-25T06:32:05.958Z,23.21
2023-04-25T06:33:09.647Z,22.58
2023-04-25T06:34:11.830Z,22.26
2023-04-25T06:35:16.168Z,22.68
2023-04-25T06:36:17.970Z,22.48
2023-04-25T06:37:23.345Z,22.42
2023-04-25T06:38:42.003Z,22.64
2023-04-25T06:39:44.110Z,22.64
2023-04-25T06:40:46.466Z,22.99
2023-04-25T06:41:48.529Z,22.61
2023-04-25T06:43:10.364Z,22.97
2023-04-25T06:44:33.083Z,23.28
2023-04-25T06:45:35.315Z,22.91
2023-04-25T06:46:38.700Z,23.13
2023-04-25T06:47:40.585Z,23.33
2023-04-25T06:48:48.717Z,23.68
2023-04-25T06:49:52.445Z,22.96
2023-04-25T06:51:05.828Z,23.38
2023-04-25T06:52:19.011Z,22.15
2023-04-25T06:53:21.402Z,22.89
2023-04-25T06:54:30.676Z,22.88
2023-04-25T06:55:40.060Z,23.12
2023-04-25T06:57:04.852Z,22.22
2023-04-25T06:58:29.104Z,22.15
2023-04-25T06:59:48.075Z,22.23
2023-04-25T07:00:50.217Z,22.07
2023-04-25T07:01:53.707Z,22.56
2023-04-25T07:03:06.496Z,22.93
2023-04-25T07:04:13.827Z,22.56
2023-04-25T07:05:22.282Z,22.90
2023-04-25T07:06:24.279Z,22.28
2023-04-25T07:07:36.190Z,22.15
2023-04-25T07:08:38.054Z,22.37
2023-04-25T07:09:40.125Z,22.16
2023-04-25T07:10:45.585Z,22.43
2023-04-25T07:12:08.103Z,21.68
2023-04-25T07:13:11.281Z,21.56
2023-04-25T07:14:14.122Z,21.82
2023-04-25T07:15:16.254Z,21.44
2023-04-25T07:16:21.086Z,21.99
2023-04-25T07:17:23.172Z,21.13
2023-04-25T07:18:31.171Z,22.50
2023-04-25T07:19:34.528Z,24.27
2023-04-25T07:20:47.775Z,24.86
2023-04-25T07:21:50.132Z,23.21
2023-04-25T07:23:02.933Z,22.76
2023-04-25T07:24:05.162Z,22.58
2023-04-25T07:25:17.352Z,23.15
2023-04-25T07:26:19.523Z,23.25
2023-04-25T07:28:00.329Z,23.74
2023-04-25T07:29:23.473Z,23.30
2023-04-25T07:30:26.658Z,22.45
2023-04-25T07:31:29.629Z,22.76
2023-04-25T07:32:41.688Z,24.03
2023-04-25T07:33:43.505Z,24.26
2023-04-25T07:34:45.657Z,24.49
2023-04-25T07:35:47.834Z,24.93
2023-04-25T07:36:51.577Z,25.89
2023-04-25T07:38:03.299Z,24.81
2023-04-25T07:39:10.339Z,24.35
2023-04-25T07:40:13.108Z,24.99
2023-04-25T07:41:21.816Z,25.86
2023-04-25T07:42:23.742Z,26.69
2023-04-25T07:43:27.097Z,26.78
2023-04-25T07:44:39.384Z,26.48
2023-04-25T07:45:47.339Z,26.21
2023-04-25T07:46:51.940Z,26.12
2023-04-25T07:48:00.968Z,26.89
2023-04-25T07:49:05.510Z,26.83
2023-04-25T07:50:17.708Z,26.41
2023-04-25T07:51:21.035Z,27.67
2023-04-25T07:52:24.529Z,28.25
2023-04-25T07:53:36.844Z,27.60
2023-04-25T07:54:54.651Z,26.95
2023-04-25T07:56:04.014Z,27.77
2023-04-25T07:57:09.177Z,29.10
2023-04-25T07:58:12.822Z,28.81
2023-04-25T07:59:22.743Z,29.77
2023-04-25T08:00:25.313Z,31.18
2023-04-25T08:01:38.364Z,30.08
2023-04-25T08:02:52.720Z,30.22
2023-04-25T08:03:55.847Z,29.73
2023-04-25T08:05:24.178Z,29.58
2023-04-25T08:06:34.940Z,30.92
2023-04-25T08:07:57.936Z,30.62
2023-04-25T08:09:00.172Z,29.73
2023-04-25T08:10:09.563Z,29.11
2023-04-25T08:11:11.754Z,29.07
2023-04-25T08:12:22.951Z,28.72
2023-04-25T08:13:25.528Z,28.41
2023-04-25T08:14:38.216Z,27.96
2023-04-25T08:15:46.186Z,28.18
2023-04-25T08:16:48.565Z,28.05
2023-04-25T08:17:51.058Z,29.07
2023-04-25T08:18:53.282Z,30.68
2023-04-25T08:20:06.889Z,30.21
2023-04-25T08:21:12.335Z,30.43
2023-04-25T08:22:14.348Z,29.70
2023-04-25T08:23:32.571Z,29.20
2023-04-25T08:24:58.630Z,29.65
2023-04-25T08:26:00.560Z,30.50
2023-04-25T08:27:04.243Z,30.52
2023-04-25T08:28:07.136Z,30.27
2023-04-25T08:29:19.262Z,30.63
2023-04-25T08:30:23.712Z,30.88
2023-04-25T08:31:36.662Z,31.49
2023-04-25T08:32:39.986Z,31.52
2023-04-25T08:34:10.887Z,31.21
2023-04-25T08:35:34.563Z,31.06
2023-04-25T08:36:47.096Z,31.36
2023-04-25T08:38:13.648Z,31.24
2023-04-25T08:39:15.821Z,31.03
2023-04-25T08:40:36.343Z,31.67
2023-04-25T08:41:47.928Z,31.18
2023-04-25T08:42:51.724Z,31.01
2023-04-25T08:43:56.923Z,30.99
2023-04-25T08:45:04.197Z,31.18
2023-04-25T08:46:12.719Z,30.97
2023-04-25T08:47:29.366Z,31.18
2023-04-25T08:48:36.171Z,31.15
2023-04-25T08:49:46.157Z,30.83
2023-04-25T08:50:53.179Z,30.68
2023-04-25T08:52:00.507Z,30.28
2023-04-25T08:53:06.282Z,30.54
2023-04-25T08:54:30.799Z,30.41
2023-04-25T08:55:42.802Z,30.26
2023-04-25T08:56:50.747Z,30.33
2023-04-25T08:57:53.570Z,29.51
2023-04-25T08:58:56.526Z,30.08
2023-04-25T09:00:06.968Z,30.70
2023-04-25T09:01:22.412Z,31.01
2023-04-25T09:02:29.032Z,31.02
2023-04-25T09:03:31.237Z,31.44
2023-04-25T09:04:33.176Z,31.62
2023-04-25T09:05:45.529Z,33.27
2023-04-25T09:06:50.506Z,33.15
2023-04-25T09:07:53.572Z,33.72
2023-04-25T09:08:55.690Z,33.69
2023-04-25T09:09:58.047Z,33.97
2023-04-25T09:11:05.616Z,33.71
2023-04-25T09:12:07.804Z,32.46
2023-04-25T09:13:11.447Z,31.85
2023-04-25T09:15:10.175Z,32.44
2023-04-25T09:16:57.715Z,32.66
2023-04-25T09:18:30.597Z,32.15
2023-04-25T09:19:46.324Z,32.56
2023-04-25T09:21:23.444Z,32.68
2023-04-25T09:22:26.208Z,32.57
2023-04-25T09:23:28.436Z,32.38
2023-04-25T09:24:35.642Z,33.18
2023-04-25T09:25:40.182Z,33.38
2023-04-25T09:26:44.874Z,33.51
2023-04-25T09:27:54.451Z,33.68
2023-04-25T09:29:14.074Z,34.09
2023-04-25T09:30:36.815Z,34.03
2023-04-25T09:32:20.220Z,34.14
2023-04-25T09:33:37.998Z,34.25
2023-04-25T09:34:58.880Z,34.09
2023-04-25T09:36:27.694Z,33.55
2023-04-25T09:37:52.913Z,33.26
2023-04-25T09:39:22.469Z,33.27
2023-04-25T09:40:48.375Z,33.70
2023-04-25T09:42:00.164Z,34.11
2023-04-25T09:43:01.998Z,33.87
2023-04-25T09:44:04.632Z,33.48
2023-04-25T09:45:26.019Z,33.13
2023-04-25T09:46:34.782Z,33.36
2023-04-25T09:47:57.367Z,32.88
2023-04-25T09:49:08.113Z,33.86
2023-04-25T09:51:07.333Z,34.83
2023-04-25T09:52:14.960Z,35.55
2023-04-25T09:53:59.208Z,35.38
2023-04-25T09:55:12.466Z,36.10
2023-04-25T09:56:17.472Z,35.83
2023-04-25T09:57:21.248Z,35.56
2023-04-25T09:58:34.782Z,35.74
2023-04-25T09:59:46.004Z,35.54
2023-04-25T10:00:50.383Z,34.89
2023-04-25T10:02:10.604Z,35.89
2023-04-25T10:03:16.765Z,35.57
2023-04-25T10:04:36.051Z,36.16
2023-04-25T10:05:47.306Z,36.05
2023-04-25T10:06:50.715Z,36.63
2023-04-25T10:08:03.118Z,36.20
2023-04-25T10:09:09.864Z,36.08
2023-04-25T10:10:16.709Z,35.99
2023-04-25T10:11:27.207Z,35.89
2023-04-25T10:12:32.213Z,35.61
2023-04-25T10:13:35.051Z,35.92
2023-04-25T10:14:41.172Z,36.65
2023-04-25T10:15:50.502Z,36.46
2023-04-25T10:16:55.584Z,37.54
2023-04-25T10:17:57.892Z,37.35
2023-04-25T10:19:00.036Z,37.39
2023-04-25T10:20:12.490Z,37.52
2023-04-25T10:21:28.001Z,37.13
2023-04-25T10:22:39.994Z,36.94
2023-04-25T10:23:43.140Z,36.90
2023-04-25T10:24:47.610Z,35.87
2023-04-25T10:25:52.021Z,36.10
2023-04-25T10:26:54.236Z,36.62
2023-04-25T10:27:56.087Z,36.60
2023-04-25T10:29:03.188Z,37.27
2023-04-25T10:30:16.262Z,37.80
2023-04-25T10:31:18.604Z,37.03
2023-04-25T10:32:25.566Z,38.25
2023-04-25T10:33:38.341Z,38.69
2023-04-25T10:34:47.818Z,38.33
2023-04-25T10:35:59.330Z,38.93
2023-04-25T10:37:04.632Z,38.96
2023-04-25T10:38:16.715Z,39.15
2023-04-25T10:39:27.704Z,38.89
2023-04-25T10:40:29.962Z,39.10
2023-04-25T10:41:58.045Z,38.81
2023-04-25T10:43:37.317Z,38.65
2023-04-25T10:44:40.666Z,39.39
2023-04-25T10:45:54.540Z,38.86
2023-04-25T10:47:01.752Z,38.81
2023-04-25T10:48:04.184Z,38.65
2023-04-25T10:49:06.187Z,37.95
2023-04-25T10:50:10.579Z,37.16
2023-04-25T10:51:16.877Z,37.41
2023-04-25T10:52:20.218Z,37.60
2023-04-25T10:53:26.199Z,37.47
2023-04-25T10:54:28.116Z,37.96
2023-04-25T10:55:51.056Z,38.01
2023-04-25T10:56:54.270Z,37.64
2023-04-25T10:57:56.288Z,37.98
2023-04-25T10:59:11.011Z,37.84
2023-04-25T11:00:18.030Z,37.77
2023-04-25T11:01:26.419Z,36.95
2023-04-25T11:02:30.220Z,36.58
2023-04-25T11:03:32.375Z,36.62
2023-04-25T11:04:35.521Z,36.68
2023-04-25T11:05:50.966Z,36.39
2023-04-25T11:07:11.486Z,37.28
2023-04-25T11:08:17.374Z,37.19
2023-04-25T11:09:19.354Z,37.32
2023-04-25T11:10:27.313Z,37.65
2023-04-25T11:11:30.134Z,36.92
2023-04-25T11:12:33.013Z,37.11
2023-04-25T11:13:35.026Z,37.17
2023-04-25T11:14:37.271Z,37.53
2023-04-25T11:15:39.623Z,37.49
2023-04-25T11:16:41.423Z,37.44
2023-04-25T11:17:44.427Z,37.14
2023-04-25T11:18:46.352Z,36.74
2023-04-25T11:19:50.270Z,37.05
2023-04-25T11:20:52.167Z,37.17
2023-04-25T11:21:57.741Z,37.55
2023-04-25T11:24:05.105Z,38.13
2023-04-25T11:25:11.358Z,38.08
2023-04-25T11:26:15.008Z,38.19
2023-04-25T11:27:17.210Z,38.57
2023-04-25T11:28:25.974Z,39.06
2023-04-25T11:29:30.390Z,39.13
2023-04-25T11:30:33.863Z,39.12
2023-04-25T11:31:35.913Z,39.78
2023-04-25T11:32:38.019Z,40.03
2023-04-25T11:33:41.807Z,40.31
2023-04-25T11:34:46.302Z,40.42
2023-04-25T11:35:48.412Z,40.95
2023-04-25T11:36:50.546Z,40.63
2023-04-25T11:37:52.383Z,40.06
2023-04-25T11:38:54.901Z,40.37
2023-04-25T11:39:57.477Z,40.50
2023-04-25T11:40:59.879Z,40.70
2023-04-25T11:42:07.440Z,40.85
2023-04-25T11:43:14.143Z,40.77
2023-04-25T11:44:20.666Z,41.25
2023-04-25T11:45:24.224Z,40.59
2023-04-25T11:46:26.620Z,40.65
2023-04-25T11:47:33.099Z,40.74
2023-04-25T11:48:41.839Z,40.94
2023-04-25T11:49:43.649Z,40.64
2023-04-25T11:50:46.640Z,40.71
2023-04-25T11:51:49.374Z,41.10
2023-04-25T11:52:51.431Z,40.64
2023-04-25T11:53:53.480Z,40.76
2023-04-25T11:54:56.756Z,40.33
2023-04-25T11:55:58.919Z,40.91
2023-04-25T11:57:02.316Z,40.86
2023-04-25T11:58:05.544Z,41.01
2023-04-25T11:59:07.996Z,40.40
2023-04-25T12:00:11.471Z,40.56
2023-04-25T12:01:30.531Z,40.48
2023-04-25T12:02:36.991Z,40.55
2023-04-25T12:03:47.290Z,40.66
2023-04-25T12:04:49.653Z,40.73
2023-04-25T12:05:51.978Z,40.64
2023-04-25T12:06:56.340Z,40.46
2023-04-25T12:07:58.658Z,39.87
2023-04-25T12:09:07.501Z,39.70
2023-04-25T12:10:14.958Z,40.18
2023-04-25T12:11:23.731Z,40.48
2023-04-25T12:12:34.069Z,40.66
2023-04-25T12:13:36.139Z,40.52
2023-04-25T12:14:38.028Z,40.96
2023-04-25T12:15:42.086Z,40.66
2023-04-25T12:16:45.908Z,40.06
2023-04-25T12:17:49.688Z,39.94
2023-04-25T12:18:54.072Z,40.38
2023-04-25T12:19:56.200Z,39.88
2023-04-25T12:20:59.365Z,40.15
2023-04-25T12:22:04.185Z,40.17
2023-04-25T12:23:09.232Z,40.22
2023-04-25T12:24:13.433Z,40.34
2023-04-25T12:25:39.496Z,40.78
2023-04-25T12:27:04.367Z,40.58
2023-04-25T12:28:22.231Z,41.29
2023-04-25T12:29:29.484Z,41.02
2023-04-25T12:31:02.928Z,41.96
2023-04-25T12:32:06.964Z,42.19
2023-04-25T12:33:09.399Z,42.10
2023-04-25T12:34:11.432Z,41.80
2023-04-25T12:35:13.382Z,41.97
2023-04-25T12:36:17.973Z,41.84
2023-04-25T12:37:19.847Z,41.53
2023-04-25T12:38:23.565Z,40.93
2023-04-25T12:39:26.909Z,41.43
2023-04-25T12:40:28.747Z,41.44
2023-04-25T12:41:31.971Z,41.32
2023-04-25T12:42:33.923Z,40.97
2023-04-25T12:43:36.602Z,41.41
2023-04-25T12:44:39.441Z,41.94
2023-04-25T12:45:41.592Z,42.02
2023-04-25T12:46:43.728Z,41.14
2023-04-25T12:47:46.092Z,41.44
2023-04-25T12:48:47.964Z,41.18
2023-04-25T12:49:49.826Z,41.04
2023-04-25T12:50:53.018Z,40.79
2023-04-25T12:51:54.866Z,40.92
2023-04-25T12:52:56.801Z,40.92
2023-04-25T12:53:58.642Z,41.06
2023-04-25T12:55:00.795Z,41.35
2023-04-25T12:56:04.216Z,41.47
2023-04-25T12:57:06.260Z,41.73
2023-04-25T12:58:08.615Z,41.56
2023-04-25T12:59:10.600Z,41.11
2023-04-25T13:00:15.787Z,41.83
2023-04-25T13:01:17.807Z,41.34
2023-04-25T13:02:20.112Z,41.74
2023-04-25T13:03:22.922Z,41.72
2023-04-25T13:04:25.131Z,41.65
2023-04-25T13:05:27.738Z,41.96
2023-04-25T13:06:31.099Z,41.82
2023-04-25T13:07:35.367Z,41.63
2023-04-25T13:08:39.206Z,41.79
2023-04-25T13:09:41.135Z,42.00
2023-04-25T13:10:44.061Z,41.41
2023-04-25T13:11:46.985Z,41.16
2023-04-25T13:12:48.932Z,41.52
2023-04-25T13:13:51.201Z,41.35
2023-04-25T13:14:53.228Z,41.19
2023-04-25T13:15:55.721Z,41.01
2023-04-25T13:16:57.636Z,41.63
2023-04-25T13:17:59.853Z,41.74
2023-04-25T13:19:01.768Z,41.96
2023-04-25T13:20:06.511Z,41.54
2023-04-25T13:21:10.674Z,41.50
2023-04-25T13:22:12.743Z,42.07
2023-04-25T13:23:14.696Z,41.64
2023-04-25T13:24:16.746Z,41.40
2023-04-25T13:25:18.851Z,41.47
2023-04-25T13:26:21.551Z,41.43
2023-04-25T13:27:23.506Z,41.58
2023-04-25T13:28:26.200Z,41.42
2023-04-25T13:29:28.055Z,41.47
2023-04-25T13:30:30.181Z,41.37
2023-04-25T13:31:32.391Z,40.91
2023-04-25T13:32:38.312Z,40.41
2023-04-25T13:33:40.633Z,41.07
2023-04-25T13:34:42.489Z,41.06
2023-04-25T13:35:47.887Z,40.42
2023-04-25T13:36:49.832Z,40.15
2023-04-25T13:37:51.680Z,39.83
2023-04-25T13:38:53.579Z,39.79
2023-04-25T13:39:56.386Z,39.54
2023-04-25T13:40:58.722Z,39.29
2023-04-25T13:42:01.229Z,39.33
2023-04-25T13:43:03.243Z,39.04
2023-04-25T13:44:05.295Z,38.53
2023-04-25T13:45:09.526Z,38.67
2023-04-25T13:46:29.953Z,38.84
2023-04-25T13:47:35.974Z,37.84
2023-04-25T13:48:37.876Z,38.30
2023-04-25T13:49:39.756Z,38.92
2023-04-25T13:50:41.578Z,38.87
2023-04-25T13:51:43.711Z,38.75
2023-04-25T13:52:46.149Z,39.15
2023-04-25T13:53:48.120Z,38.82
2023-04-25T13:54:50.103Z,38.59
2023-04-25T13:55:52.362Z,38.86
2023-04-25T13:56:56.406Z,39.74
2023-04-25T13:57:58.606Z,39.07
2023-04-25T13:59:00.503Z,39.67
2023-04-25T14:00:10.047Z,38.78
2023-04-25T14:01:12.297Z,38.88
2023-04-25T14:02:14.781Z,38.79
2023-04-25T14:03:16.745Z,39.13
2023-04-25T14:04:18.652Z,39.02
2023-04-25T14:05:20.450Z,39.26
2023-04-25T14:06:25.035Z,39.23
2023-04-25T14:07:27.564Z,38.97
2023-04-25T14:08:29.825Z,39.34
2023-04-25T14:09:31.938Z,39.68
2023-04-25T14:10:34.118Z,39.96
2023-04-25T14:11:36.287Z,39.44
2023-04-25T14:12:38.308Z,39.20
2023-04-25T14:13:40.115Z,39.14
2023-04-25T14:14:42.014Z,39.02
2023-04-25T14:15:43.864Z,39.77
2023-04-25T14:16:51.912Z,39.29
2023-04-25T14:17:53.815Z,39.33
2023-04-25T14:18:55.789Z,39.52
2023-04-25T14:19:57.596Z,39.68
2023-04-25T14:21:00.018Z,39.73
2023-04-25T14:22:02.000Z,40.03
2023-04-25T14:23:03.986Z,39.94
2023-04-25T14:24:06.076Z,40.21
2023-04-25T14:25:08.814Z,40.40
2023-04-25T14:26:13.600Z,40.04
2023-04-25T14:27:15.505Z,39.96
2023-04-25T14:28:17.834Z,40.53
2023-04-25T14:29:19.738Z,40.03
2023-04-25T14:30:22.231Z,40.18
2023-04-25T14:31:24.421Z,40.50
2023-04-25T14:32:26.495Z,40.75
2023-04-25T14:33:28.455Z,40.64
2023-04-25T14:34:30.269Z,40.31
2023-04-25T14:35:32.069Z,41.11
2023-04-25T14:36:34.655Z,40.91
2023-04-25T14:37:36.452Z,40.99
2023-04-25T14:38:38.234Z,40.75
2023-04-25T14:39:40.209Z,40.84
2023-04-25T14:40:42.001Z,40.90
2023-04-25T14:41:43.865Z,40.68
2023-04-25T14:42:46.348Z,40.87
2023-04-25T14:43:48.241Z,41.09
2023-04-25T14:44:50.080Z,40.63
2023-04-25T14:45:51.979Z,40.64
2023-04-25T14:46:54.154Z,40.60
2023-04-25T14:47:57.000Z,40.46
2023-04-25T14:48:58.948Z,40.53
2023-04-25T14:50:01.014Z,40.93
2023-04-25T14:51:03.302Z,41.03
2023-04-25T14:52:05.200Z,40.89
2023-04-25T14:53:07.048Z,40.60
2023-04-25T14:54:09.022Z,40.77
2023-04-25T14:55:10.880Z,40.85
2023-04-25T14:56:13.549Z,40.86
2023-04-25T14:57:16.833Z,41.00
2023-04-25T14:58:18.705Z,40.79
2023-04-25T14:59:21.540Z,40.74
2023-04-25T15:00:24.036Z,40.64
2023-04-25T15:01:26.167Z,40.36
2023-04-25T15:02:29.103Z,40.56
2023-04-25T15:03:31.505Z,40.54
2023-04-25T15:04:36.658Z,40.45
2023-04-25T15:05:38.875Z,40.10
2023-04-25T15:07:58.248Z,40.26
2023-04-25T15:09:00.311Z,40.04
2023-04-25T15:10:02.288Z,39.97
2023-04-25T15:11:07.247Z,39.52
2023-04-25T15:12:09.242Z,39.31
2023-04-25T15:13:11.603Z,39.04
2023-04-25T15:14:13.462Z,39.00
2023-04-25T15:15:22.654Z,39.31
2023-04-25T15:16:27.956Z,38.79
2023-04-25T15:17:32.110Z,38.94
2023-04-25T15:18:34.052Z,38.72
2023-04-25T15:19:35.998Z,38.39
2023-04-25T15:20:37.803Z,38.28
2023-04-25T15:21:39.784Z,38.49
2023-04-25T15:22:43.393Z,38.55
2023-04-25T15:23:45.341Z,38.45
2023-04-25T15:24:47.145Z,38.74
2023-04-25T15:25:48.958Z,38.89
2023-04-25T15:26:51.600Z,38.54
2023-04-25T15:27:54.724Z,38.33
2023-04-25T15:28:56.913Z,38.40
2023-04-25T15:29:58.860Z,38.33
2023-04-25T15:31:00.878Z,38.26
2023-04-25T15:32:03.086Z,38.06
2023-04-25T15:33:05.188Z,38.58
2023-04-25T15:34:08.456Z,38.51
2023-04-25T15:35:10.781Z,38.45
2023-04-25T15:36:12.992Z,37.95
2023-04-25T15:37:14.914Z,38.05
2023-04-25T15:38:16.780Z,38.55
2023-04-25T15:39:18.573Z,39.02
2023-04-25T15:40:20.602Z,38.84
2023-04-25T15:41:24.284Z,38.67
2023-04-25T15:42:26.602Z,38.71
2023-04-25T15:43:28.497Z,38.48
2023-04-25T15:44:30.343Z,38.34
2023-04-25T15:45:33.125Z,38.75
2023-04-25T15:46:37.361Z,38.66
2023-04-25T15:47:39.457Z,38.87
2023-04-25T15:48:41.342Z,39.28
2023-04-25T15:49:43.150Z,39.17
2023-04-25T15:50:45.025Z,39.28
2023-04-25T15:51:47.270Z,39.44
2023-04-25T15:52:50.336Z,39.52
2023-04-25T15:53:52.472Z,39.40
2023-04-25T15:54:55.699Z,39.61
2023-04-25T15:55:57.528Z,39.33
2023-04-25T15:56:59.964Z,39.48
2023-04-25T15:58:02.110Z,39.80
2023-04-25T15:59:04.264Z,39.95
2023-04-25T16:00:17.744Z,39.50
2023-04-25T16:01:24.287Z,39.92
2023-04-25T16:02:26.348Z,39.81
2023-04-25T16:03:28.646Z,40.31
2023-04-25T16:04:35.571Z,39.96
2023-04-25T16:05:38.373Z,40.21
2023-04-25T16:06:42.380Z,40.14
2023-04-25T16:07:45.835Z,40.41
2023-04-25T16:08:47.719Z,40.13
2023-04-25T16:09:49.568Z,40.20
2023-04-25T16:10:51.524Z,40.48
2023-04-25T16:11:53.709Z,41.50
2023-04-25T16:12:55.690Z,40.80
2023-04-25T16:13:57.640Z,40.30
2023-04-25T16:14:59.424Z,40.57
2023-04-25T16:16:01.769Z,40.56
2023-04-25T16:17:05.027Z,40.45
2023-04-25T16:18:08.215Z,41.09
2023-04-25T16:19:10.404Z,40.41
2023-04-25T16:20:13.498Z,40.65
2023-04-25T16:21:17.364Z,40.85
2023-04-25T16:22:19.458Z,41.31
2023-04-25T16:23:21.580Z,41.01
2023-04-25T16:24:23.647Z,40.88
2023-04-25T16:25:25.610Z,41.02
2023-04-25T16:26:28.636Z,40.97
2023-04-25T16:27:31.261Z,41.15
2023-04-25T16:28:34.791Z,41.56
2023-04-25T16:29:36.587Z,41.10
2023-04-25T16:30:38.654Z,41.18
2023-04-25T16:31:41.995Z,41.21
2023-04-25T16:32:45.530Z,41.26
2023-04-25T16:33:47.686Z,40.87
2023-04-25T16:34:49.640Z,41.48
2023-04-25T16:35:52.890Z,41.11
2023-04-25T16:36:56.879Z,41.32
2023-04-25T16:37:59.112Z,41.39
2023-04-25T16:39:01.349Z,41.25
2023-04-25T16:40:03.365Z,41.64
2023-04-25T16:41:08.265Z,41.84
2023-04-25T16:42:10.617Z,41.47
2023-04-25T16:43:12.645Z,41.42
2023-04-25T16:44:14.492Z,41.31
2023-04-25T16:45:17.861Z,41.26
2023-04-25T16:46:21.833Z,41.42
2023-04-25T16:47:25.334Z,41.34
2023-04-25T16:48:27.489Z,47.03
2023-04-25T16:49:29.453Z,50.73
2023-04-25T16:50:31.219Z,53.14
2023-04-25T16:51:33.607Z,55.02
2023-04-25T16:52:35.428Z,57.03
2023-04-25T16:53:37.431Z,59.13
2023-04-25T16:54:39.189Z,60.34
2023-04-25T16:55:41.656Z,61.86
2023-04-25T16:56:43.665Z,62.63
2023-04-25T16:57:45.850Z,64.14
2023-04-25T16:58:49.671Z,65.96
2023-04-25T16:59:52.101Z,66.34
2023-04-25T17:00:54.720Z,69.21
2023-04-25T17:01:57.079Z,71.60
2023-04-25T17:02:58.936Z,73.23
2023-04-25T17:04:01.127Z,75.10
2023-04-25T17:05:03.183Z,75.68
2023-04-25T17:06:06.433Z,76.70
2023-04-25T17:07:10.895Z,77.32
2023-04-25T17:08:12.772Z,78.47
2023-04-25T17:09:14.515Z,79.74
2023-04-25T17:10:16.412Z,80.38
2023-04-25T17:11:19.780Z,81.25
2023-04-25T17:12:22.222Z,81.71
2023-04-25T17:13:31.049Z,81.11
2023-04-25T17:14:35.945Z,82.15
2023-04-25T17:15:38.329Z,84.83
2023-04-25T17:19:22.615Z,87.82
2023-04-25T17:20:36.171Z,89.35
2023-04-25T17:22:11.818Z,90.13
2023-04-25T17:23:14.256Z,90.75
2023-04-25T17:24:16.371Z,91.39
2023-04-25T17:25:20.532Z,91.49
2023-04-25T17:26:22.559Z,92.62
2023-04-25T17:27:25.118Z,94.53
2023-04-25T17:28:27.736Z,98.54
2023-04-25T17:29:29.786Z,100.00
2023-04-25T17:30:32.307Z,100.00
2023-04-25T17:32:18.307Z,100.00
2023-04-25T17:33:32.688Z,100.00
2023-04-25T17:34:48.852Z,100.00
2023-04-25T17:35:51.771Z,100.00
2023-04-25T17:36:54.655Z,100.00
2023-04-25T17:37:56.823Z,100.00
2023-04-25T17:38:59.958Z,100.00
2023-04-25T17:40:04.361Z,100.00
2023-04-25T17:41:06.780Z,100.00
2023-04-25T17:42:13.181Z,100.00
2023-04-25T17:43:40.711Z,100.00
2023-04-25T17:44:44.378Z,100.00
2023-04-25T17:45:47.066Z,100.00
2023-04-25T17:46:51.281Z,100.00
2023-04-25T17:47:54.794Z,100.00
2023-04-25T17:48:59.558Z,100.00
2023-04-25T17:50:09.821Z,100.00
2023-04-25T17:51:21.352Z,100.00
2023-04-25T17:52:39.014Z,100.00
2023-04-25T18:15:12.863Z,100.00
2023-04-25T18:23:02.723Z,100.00
2023-04-25T18:24:16.577Z,100.00
